sensor_id;sensor_type;location;lat;lon;timestamp;P1;durP1;ratioP1;P2;durP2;ratioP2
37477;SDS011;23334;54.316;10.182;2023-05-07T00:01:38;13.03;;;9.07;;
37477;SDS011;23334;54.316;10.182;2023-05-07T00:04:04;18.83;;;8.80;;
37477;SDS011;23334;54.316;10.182;2023-05-07T00:06:30;18.37;;;9.30;;
37477;SDS011;23334;54.316;10.182;2023-05-07T00:08:58;16.40;;;8.87;;
37477;SDS011;23334;54.316;10.182;2023-05-07T00:11:25;13.40;;;9.20;;
37477;SDS011;23334;54.316;10.182;2023-05-07T00:13:51;21.30;;;10.93;;
37477;SDS011;23334;54.316;10.182;2023-05-07T00:16:17;15.67;;;9.47;;
37477;SDS011;23334;54.316;10.182;2023-05-07T00:18:43;15.53;;;9.80;;
37477;SDS011;23334;54.316;10.182;2023-05-07T00:21:10;12.23;;;9.27;;
37477;SDS011;23334;54.316;10.182;2023-05-07T00:23:35;16.93;;;8.67;;
37477;SDS011;23334;54.316;10.182;2023-05-07T00:26:01;14.80;;;9.27;;
37477;SDS011;23334;54.316;10.182;2023-05-07T00:28:26;12.77;;;9.27;;
37477;SDS011;23334;54.316;10.182;2023-05-07T00:30:52;15.23;;;9.40;;
37477;SDS011;23334;54.316;10.182;2023-05-07T00:33:18;19.33;;;9.50;;
37477;SDS011;23334;54.316;10.182;2023-05-07T00:35:45;11.90;;;8.37;;
37477;SDS011;23334;54.316;10.182;2023-05-07T00:38:10;13.17;;;8.50;;
37477;SDS011;23334;54.316;10.182;2023-05-07T00:40:36;26.83;;;14.63;;
37477;SDS011;23334;54.316;10.182;2023-05-07T00:43:01;35.47;;;24.17;;
37477;SDS011;23334;54.316;10.182;2023-05-07T00:45:27;34.20;;;23.13;;
37477;SDS011;23334;54.316;10.182;2023-05-07T00:47:57;21.47;;;13.90;;
37477;SDS011;23334;54.316;10.182;2023-05-07T00:50:27;17.77;;;11.00;;
37477;SDS011;23334;54.316;10.182;2023-05-07T00:52:53;10.90;;;8.73;;
37477;SDS011;23334;54.316;10.182;2023-05-07T00:55:20;11.27;;;8.90;;
37477;SDS011;23334;54.316;10.182;2023-05-07T00:57:46;14.60;;;10.00;;
37477;SDS011;23334;54.316;10.182;2023-05-07T01:00:12;23.23;;;9.73;;
37477;SDS011;23334;54.316;10.182;2023-05-07T01:02:41;14.43;;;9.50;;
37477;SDS011;23334;54.316;10.182;2023-05-07T01:05:16;14.67;;;9.77;;
37477;SDS011;23334;54.316;10.182;2023-05-07T01:07:43;15.30;;;9.70;;
37477;SDS011;23334;54.316;10.182;2023-05-07T01:10:10;16.10;;;9.27;;
37477;SDS011;23334;54.316;10.182;2023-05-07T01:12:36;15.43;;;9.43;;
37477;SDS011;23334;54.316;10.182;2023-05-07T01:15:03;13.63;;;8.97;;
37477;SDS011;23334;54.316;10.182;2023-05-07T01:17:35;13.40;;;9.47;;
37477;SDS011;23334;54.316;10.182;2023-05-07T01:20:03;11.57;;;9.20;;
37477;SDS011;23334;54.316;10.182;2023-05-07T01:22:33;15.57;;;9.93;;
37477;SDS011;23334;54.316;10.182;2023-05-07T01:25:02;13.70;;;10.00;;
37477;SDS011;23334;54.316;10.182;2023-05-07T01:27:28;18.40;;;10.80;;
37477;SDS011;23334;54.316;10.182;2023-05-07T01:29:54;16.73;;;10.50;;
37477;SDS011;23334;54.316;10.182;2023-05-07T01:32:21;14.43;;;10.00;;
37477;SDS011;23334;54.316;10.182;2023-05-07T01:34:53;14.90;;;9.93;;
37477;SDS011;23334;54.316;10.182;2023-05-07T01:37:20;14.47;;;9.90;;
37477;SDS011;23334;54.316;10.182;2023-05-07T01:39:47;17.70;;;11.50;;
37477;SDS011;23334;54.316;10.182;2023-05-07T01:42:13;17.10;;;10.17;;
37477;SDS011;23334;54.316;10.182;2023-05-07T01:44:38;16.60;;;10.20;;
37477;SDS011;23334;54.316;10.182;2023-05-07T01:47:04;13.07;;;9.47;;
37477;SDS011;23334;54.316;10.182;2023-05-07T01:49:31;15.80;;;10.50;;
37477;SDS011;23334;54.316;10.182;2023-05-07T01:51:56;17.17;;;9.60;;
37477;SDS011;23334;54.316;10.182;2023-05-07T01:54:26;18.20;;;10.73;;
37477;SDS011;23334;54.316;10.182;2023-05-07T01:56:56;22.40;;;9.00;;
37477;SDS011;23334;54.316;10.182;2023-05-07T01:59:22;17.50;;;9.57;;
37477;SDS011;23334;54.316;10.182;2023-05-07T02:01:48;14.80;;;10.37;;
37477;SDS011;23334;54.316;10.182;2023-05-07T02:04:13;10.70;;;9.40;;
37477;SDS011;23334;54.316;10.182;2023-05-07T02:06:39;11.40;;;8.73;;
37477;SDS011;23334;54.316;10.182;2023-05-07T02:09:04;10.20;;;8.00;;
37477;SDS011;23334;54.316;10.182;2023-05-07T02:11:30;10.90;;;8.60;;
37477;SDS011;23334;54.316;10.182;2023-05-07T02:13:55;11.20;;;9.03;;
37477;SDS011;23334;54.316;10.182;2023-05-07T02:16:21;11.37;;;7.63;;
37477;SDS011;23334;54.316;10.182;2023-05-07T02:18:47;13.03;;;9.10;;
37477;SDS011;23334;54.316;10.182;2023-05-07T02:21:13;17.93;;;8.30;;
37477;SDS011;23334;54.316;10.182;2023-05-07T02:23:39;10.57;;;8.47;;
37477;SDS011;23334;54.316;10.182;2023-05-07T02:26:04;9.37;;;8.27;;
37477;SDS011;23334;54.316;10.182;2023-05-07T02:28:30;13.00;;;8.87;;
37477;SDS011;23334;54.316;10.182;2023-05-07T02:30:55;10.70;;;8.47;;
37477;SDS011;23334;54.316;10.182;2023-05-07T02:33:23;11.00;;;9.10;;
37477;SDS011;23334;54.316;10.182;2023-05-07T02:35:48;10.27;;;7.93;;
37477;SDS011;23334;54.316;10.182;2023-05-07T02:38:14;8.93;;;7.40;;
37477;SDS011;23334;54.316;10.182;2023-05-07T02:40:39;11.97;;;8.27;;
37477;SDS011;23334;54.316;10.182;2023-05-07T02:43:05;10.60;;;9.00;;
37477;SDS011;23334;54.316;10.182;2023-05-07T02:45:31;11.10;;;7.93;;
37477;SDS011;23334;54.316;10.182;2023-05-07T02:47:57;10.80;;;8.43;;
37477;SDS011;23334;54.316;10.182;2023-05-07T02:50:23;11.43;;;8.67;;
37477;SDS011;23334;54.316;10.182;2023-05-07T02:52:49;12.17;;;8.37;;
37477;SDS011;23334;54.316;10.182;2023-05-07T02:55:14;8.90;;;7.50;;
37477;SDS011;23334;54.316;10.182;2023-05-07T02:57:40;11.70;;;8.60;;
37477;SDS011;23334;54.316;10.182;2023-05-07T03:00:12;9.80;;;7.60;;
37477;SDS011;23334;54.316;10.182;2023-05-07T03:02:39;8.97;;;7.27;;
37477;SDS011;23334;54.316;10.182;2023-05-07T03:05:05;12.30;;;8.00;;
37477;SDS011;23334;54.316;10.182;2023-05-07T03:07:31;12.53;;;8.93;;
37477;SDS011;23334;54.316;10.182;2023-05-07T03:09:57;11.87;;;8.00;;
37477;SDS011;23334;54.316;10.182;2023-05-07T03:12:22;8.23;;;7.43;;
37477;SDS011;23334;54.316;10.182;2023-05-07T03:14:48;10.77;;;8.67;;
37477;SDS011;23334;54.316;10.182;2023-05-07T03:17:13;11.10;;;7.80;;
37477;SDS011;23334;54.316;10.182;2023-05-07T03:19:39;9.50;;;8.00;;
37477;SDS011;23334;54.316;10.182;2023-05-07T03:22:04;8.47;;;7.47;;
37477;SDS011;23334;54.316;10.182;2023-05-07T03:24:29;11.20;;;7.90;;
37477;SDS011;23334;54.316;10.182;2023-05-07T03:26:55;10.20;;;8.00;;
37477;SDS011;23334;54.316;10.182;2023-05-07T03:29:22;11.63;;;8.00;;
37477;SDS011;23334;54.316;10.182;2023-05-07T03:31:48;9.13;;;8.00;;
37477;SDS011;23334;54.316;10.182;2023-05-07T03:34:13;8.20;;;7.10;;
37477;SDS011;23334;54.316;10.182;2023-05-07T03:36:39;14.30;;;8.47;;
37477;SDS011;23334;54.316;10.182;2023-05-07T03:39:05;9.67;;;8.10;;
37477;SDS011;23334;54.316;10.182;2023-05-07T03:41:32;10.37;;;8.27;;
37477;SDS011;23334;54.316;10.182;2023-05-07T03:43:57;8.43;;;7.50;;
37477;SDS011;23334;54.316;10.182;2023-05-07T03:46:23;9.83;;;7.17;;
37477;SDS011;23334;54.316;10.182;2023-05-07T03:48:51;8.97;;;8.07;;
37477;SDS011;23334;54.316;10.182;2023-05-07T03:51:16;8.63;;;7.37;;
37477;SDS011;23334;54.316;10.182;2023-05-07T03:53:42;8.83;;;7.93;;
37477;SDS011;23334;54.316;10.182;2023-05-07T03:56:07;8.07;;;7.27;;
37477;SDS011;23334;54.316;10.182;2023-05-07T03:58:33;8.73;;;7.77;;
37477;SDS011;23334;54.316;10.182;2023-05-07T04:00:59;11.30;;;8.17;;
37477;SDS011;23334;54.316;10.182;2023-05-07T04:03:24;7.53;;;6.80;;
37477;SDS011;23334;54.316;10.182;2023-05-07T04:05:50;12.13;;;7.67;;
37477;SDS011;23334;54.316;10.182;2023-05-07T04:08:16;8.93;;;7.30;;
37477;SDS011;23334;54.316;10.182;2023-05-07T04:10:41;8.37;;;7.27;;
37477;SDS011;23334;54.316;10.182;2023-05-07T04:13:07;9.17;;;7.57;;
37477;SDS011;23334;54.316;10.182;2023-05-07T04:15:32;8.30;;;7.50;;
37477;SDS011;23334;54.316;10.182;2023-05-07T04:17:57;8.37;;;7.20;;
37477;SDS011;23334;54.316;10.182;2023-05-07T04:20:23;8.13;;;7.33;;
37477;SDS011;23334;54.316;10.182;2023-05-07T04:22:49;8.80;;;7.90;;
37477;SDS011;23334;54.316;10.182;2023-05-07T04:25:15;7.80;;;7.00;;
37477;SDS011;23334;54.316;10.182;2023-05-07T04:27:41;7.80;;;6.93;;
37477;SDS011;23334;54.316;10.182;2023-05-07T04:30:06;9.50;;;7.30;;
37477;SDS011;23334;54.316;10.182;2023-05-07T04:32:32;12.07;;;6.83;;
37477;SDS011;23334;54.316;10.182;2023-05-07T04:34:58;8.10;;;7.40;;
37477;SDS011;23334;54.316;10.182;2023-05-07T04:37:25;10.57;;;7.27;;
37477;SDS011;23334;54.316;10.182;2023-05-07T04:39:50;10.00;;;7.87;;
37477;SDS011;23334;54.316;10.182;2023-05-07T04:42:16;10.20;;;7.00;;
37477;SDS011;23334;54.316;10.182;2023-05-07T04:44:43;9.20;;;7.30;;
37477;SDS011;23334;54.316;10.182;2023-05-07T04:47:09;10.57;;;7.40;;
37477;SDS011;23334;54.316;10.182;2023-05-07T04:49:35;14.80;;;8.70;;
37477;SDS011;23334;54.316;10.182;2023-05-07T04:52:01;7.93;;;6.73;;
37477;SDS011;23334;54.316;10.182;2023-05-07T04:54:26;10.00;;;6.80;;
37477;SDS011;23334;54.316;10.182;2023-05-07T04:56:52;7.33;;;6.60;;
37477;SDS011;23334;54.316;10.182;2023-05-07T04:59:17;7.60;;;6.80;;
37477;SDS011;23334;54.316;10.182;2023-05-07T05:01:43;7.33;;;6.47;;
37477;SDS011;23334;54.316;10.182;2023-05-07T05:04:08;8.63;;;7.10;;
37477;SDS011;23334;54.316;10.182;2023-05-07T05:06:35;9.03;;;6.80;;
37477;SDS011;23334;54.316;10.182;2023-05-07T05:09:00;10.73;;;7.20;;
37477;SDS011;23334;54.316;10.182;2023-05-07T05:11:26;10.10;;;6.60;;
37477;SDS011;23334;54.316;10.182;2023-05-07T05:13:51;8.10;;;7.30;;
37477;SDS011;23334;54.316;10.182;2023-05-07T05:16:16;8.97;;;6.90;;
37477;SDS011;23334;54.316;10.182;2023-05-07T05:18:42;14.90;;;7.57;;
37477;SDS011;23334;54.316;10.182;2023-05-07T05:21:07;7.10;;;6.40;;
37477;SDS011;23334;54.316;10.182;2023-05-07T05:23:33;7.07;;;6.37;;
37477;SDS011;23334;54.316;10.182;2023-05-07T05:25:59;10.27;;;7.00;;
37477;SDS011;23334;54.316;10.182;2023-05-07T05:28:24;9.50;;;6.67;;
37477;SDS011;23334;54.316;10.182;2023-05-07T05:30:50;7.53;;;6.83;;
37477;SDS011;23334;54.316;10.182;2023-05-07T05:33:15;8.90;;;6.80;;
37477;SDS011;23334;54.316;10.182;2023-05-07T05:35:41;7.93;;;7.03;;
37477;SDS011;23334;54.316;10.182;2023-05-07T05:38:07;6.67;;;6.07;;
37477;SDS011;23334;54.316;10.182;2023-05-07T05:40:32;11.80;;;7.20;;
37477;SDS011;23334;54.316;10.182;2023-05-07T05:42:58;9.30;;;7.37;;
37477;SDS011;23334;54.316;10.182;2023-05-07T05:45:24;10.10;;;7.17;;
37477;SDS011;23334;54.316;10.182;2023-05-07T05:47:50;9.03;;;6.37;;
37477;SDS011;23334;54.316;10.182;2023-05-07T05:50:15;7.47;;;6.20;;
37477;SDS011;23334;54.316;10.182;2023-05-07T05:52:41;8.80;;;6.90;;
37477;SDS011;23334;54.316;10.182;2023-05-07T05:55:07;10.17;;;6.47;;
37477;SDS011;23334;54.316;10.182;2023-05-07T05:57:33;9.20;;;6.10;;
37477;SDS011;23334;54.316;10.182;2023-05-07T05:59:59;6.70;;;6.00;;
37477;SDS011;23334;54.316;10.182;2023-05-07T06:02:25;7.53;;;6.73;;
37477;SDS011;23334;54.316;10.182;2023-05-07T06:04:51;7.03;;;6.33;;
37477;SDS011;23334;54.316;10.182;2023-05-07T06:07:16;6.83;;;6.13;;
37477;SDS011;23334;54.316;10.182;2023-05-07T06:09:42;7.80;;;6.37;;
37477;SDS011;23334;54.316;10.182;2023-05-07T06:12:07;9.47;;;6.87;;
37477;SDS011;23334;54.316;10.182;2023-05-07T06:14:33;8.33;;;6.13;;
37477;SDS011;23334;54.316;10.182;2023-05-07T06:16:59;7.83;;;6.50;;
37477;SDS011;23334;54.316;10.182;2023-05-07T06:19:24;6.80;;;6.10;;
37477;SDS011;23334;54.316;10.182;2023-05-07T06:21:51;9.83;;;6.30;;
37477;SDS011;23334;54.316;10.182;2023-05-07T06:24:16;8.80;;;6.70;;
37477;SDS011;23334;54.316;10.182;2023-05-07T06:26:42;7.67;;;6.60;;
37477;SDS011;23334;54.316;10.182;2023-05-07T06:29:07;7.47;;;5.90;;
37477;SDS011;23334;54.316;10.182;2023-05-07T06:31:33;6.93;;;6.20;;
37477;SDS011;23334;54.316;10.182;2023-05-07T06:33:58;6.47;;;5.47;;
37477;SDS011;23334;54.316;10.182;2023-05-07T06:36:24;6.83;;;6.07;;
37477;SDS011;23334;54.316;10.182;2023-05-07T06:38:49;10.60;;;6.50;;
37477;SDS011;23334;54.316;10.182;2023-05-07T06:41:15;9.23;;;6.40;;
37477;SDS011;23334;54.316;10.182;2023-05-07T06:43:40;9.07;;;6.40;;
37477;SDS011;23334;54.316;10.182;2023-05-07T06:46:06;6.20;;;5.60;;
37477;SDS011;23334;54.316;10.182;2023-05-07T06:48:31;7.53;;;6.10;;
37477;SDS011;23334;54.316;10.182;2023-05-07T06:50:57;8.63;;;6.97;;
37477;SDS011;23334;54.316;10.182;2023-05-07T06:53:23;11.33;;;6.10;;
37477;SDS011;23334;54.316;10.182;2023-05-07T06:55:48;7.07;;;6.07;;
37477;SDS011;23334;54.316;10.182;2023-05-07T06:58:14;10.63;;;5.90;;
37477;SDS011;23334;54.316;10.182;2023-05-07T07:00:40;6.20;;;5.30;;
37477;SDS011;23334;54.316;10.182;2023-05-07T07:03:06;7.37;;;6.00;;
37477;SDS011;23334;54.316;10.182;2023-05-07T07:05:31;8.33;;;5.27;;
37477;SDS011;23334;54.316;10.182;2023-05-07T07:07:57;9.10;;;4.80;;
37477;SDS011;23334;54.316;10.182;2023-05-07T07:10:23;5.80;;;5.30;;
37477;SDS011;23334;54.316;10.182;2023-05-07T07:12:48;5.93;;;4.97;;
37477;SDS011;23334;54.316;10.182;2023-05-07T07:15:14;5.33;;;4.83;;
37477;SDS011;23334;54.316;10.182;2023-05-07T07:17:40;6.13;;;4.40;;
37477;SDS011;23334;54.316;10.182;2023-05-07T07:20:06;5.07;;;4.67;;
37477;SDS011;23334;54.316;10.182;2023-05-07T07:22:32;4.73;;;4.30;;
37477;SDS011;23334;54.316;10.182;2023-05-07T07:24:57;4.30;;;3.90;;
37477;SDS011;23334;54.316;10.182;2023-05-07T07:27:23;4.40;;;4.10;;
37477;SDS011;23334;54.316;10.182;2023-05-07T07:29:49;5.17;;;3.83;;
37477;SDS011;23334;54.316;10.182;2023-05-07T07:32:15;4.50;;;4.07;;
37477;SDS011;23334;54.316;10.182;2023-05-07T07:34:40;4.53;;;4.17;;
37477;SDS011;23334;54.316;10.182;2023-05-07T07:37:06;4.83;;;4.10;;
37477;SDS011;23334;54.316;10.182;2023-05-07T07:39:32;4.30;;;4.00;;
37477;SDS011;23334;54.316;10.182;2023-05-07T07:41:58;3.77;;;3.47;;
37477;SDS011;23334;54.316;10.182;2023-05-07T07:44:24;5.90;;;3.87;;
37477;SDS011;23334;54.316;10.182;2023-05-07T07:46:50;6.27;;;3.90;;
37477;SDS011;23334;54.316;10.182;2023-05-07T07:49:16;4.90;;;3.63;;
37477;SDS011;23334;54.316;10.182;2023-05-07T07:51:42;6.37;;;4.37;;
37477;SDS011;23334;54.316;10.182;2023-05-07T07:54:08;4.43;;;4.03;;
37477;SDS011;23334;54.316;10.182;2023-05-07T07:56:33;4.10;;;3.80;;
37477;SDS011;23334;54.316;10.182;2023-05-07T07:58:59;5.83;;;4.43;;
37477;SDS011;23334;54.316;10.182;2023-05-07T08:01:25;4.40;;;4.10;;
37477;SDS011;23334;54.316;10.182;2023-05-07T08:03:51;5.50;;;5.10;;
37477;SDS011;23334;54.316;10.182;2023-05-07T08:06:16;7.63;;;3.77;;
37477;SDS011;23334;54.316;10.182;2023-05-07T08:08:42;4.97;;;4.47;;
37477;SDS011;23334;54.316;10.182;2023-05-07T08:11:08;5.73;;;5.03;;
37477;SDS011;23334;54.316;10.182;2023-05-07T08:13:34;4.43;;;4.03;;
37477;SDS011;23334;54.316;10.182;2023-05-07T08:15:59;4.30;;;3.90;;
37477;SDS011;23334;54.316;10.182;2023-05-07T08:18:25;5.00;;;4.27;;
37477;SDS011;23334;54.316;10.182;2023-05-07T08:20:53;4.90;;;4.20;;
37477;SDS011;23334;54.316;10.182;2023-05-07T08:23:18;8.33;;;4.30;;
37477;SDS011;23334;54.316;10.182;2023-05-07T08:25:44;4.33;;;3.97;;
37477;SDS011;23334;54.316;10.182;2023-05-07T08:28:10;4.97;;;4.57;;
37477;SDS011;23334;54.316;10.182;2023-05-07T08:30:36;4.87;;;4.23;;
37477;SDS011;23334;54.316;10.182;2023-05-07T08:33:02;4.33;;;4.03;;
37477;SDS011;23334;54.316;10.182;2023-05-07T08:35:28;5.17;;;4.10;;
37477;SDS011;23334;54.316;10.182;2023-05-07T08:37:53;4.37;;;3.97;;
37477;SDS011;23334;54.316;10.182;2023-05-07T08:40:20;4.50;;;3.90;;
37477;SDS011;23334;54.316;10.182;2023-05-07T08:42:49;4.53;;;4.23;;
37477;SDS011;23334;54.316;10.182;2023-05-07T08:45:17;4.60;;;3.70;;
37477;SDS011;23334;54.316;10.182;2023-05-07T08:47:46;4.70;;;4.30;;
37477;SDS011;23334;54.316;10.182;2023-05-07T08:50:15;4.90;;;4.50;;
37477;SDS011;23334;54.316;10.182;2023-05-07T08:52:41;4.37;;;3.97;;
37477;SDS011;23334;54.316;10.182;2023-05-07T08:55:07;7.33;;;3.97;;
37477;SDS011;23334;54.316;10.182;2023-05-07T08:57:33;4.90;;;4.20;;
37477;SDS011;23334;54.316;10.182;2023-05-07T08:59:59;4.30;;;3.70;;
37477;SDS011;23334;54.316;10.182;2023-05-07T09:02:25;4.60;;;4.20;;
37477;SDS011;23334;54.316;10.182;2023-05-07T09:04:50;4.23;;;3.83;;
37477;SDS011;23334;54.316;10.182;2023-05-07T09:07:17;13.10;;;5.00;;
37477;SDS011;23334;54.316;10.182;2023-05-07T09:09:44;4.70;;;4.30;;
37477;SDS011;23334;54.316;10.182;2023-05-07T09:12:10;4.27;;;3.97;;
37477;SDS011;23334;54.316;10.182;2023-05-07T09:14:36;6.43;;;4.07;;
37477;SDS011;23334;54.316;10.182;2023-05-07T09:17:02;3.93;;;3.63;;
37477;SDS011;23334;54.316;10.182;2023-05-07T09:19:28;4.37;;;3.97;;
37477;SDS011;23334;54.316;10.182;2023-05-07T09:22:02;4.53;;;4.10;;
37477;SDS011;23334;54.316;10.182;2023-05-07T09:24:32;4.10;;;3.70;;
37477;SDS011;23334;54.316;10.182;2023-05-07T09:27:00;4.47;;;4.07;;
37477;SDS011;23334;54.316;10.182;2023-05-07T09:29:27;4.97;;;4.00;;
37477;SDS011;23334;54.316;10.182;2023-05-07T09:32:01;6.13;;;4.00;;
37477;SDS011;23334;54.316;10.182;2023-05-07T09:34:28;3.97;;;3.67;;
37477;SDS011;23334;54.316;10.182;2023-05-07T09:36:54;4.03;;;3.80;;
37477;SDS011;23334;54.316;10.182;2023-05-07T09:39:21;3.47;;;3.27;;
37477;SDS011;23334;54.316;10.182;2023-05-07T09:41:48;4.50;;;4.10;;
37477;SDS011;23334;54.316;10.182;2023-05-07T09:44:14;4.37;;;3.97;;
37477;SDS011;23334;54.316;10.182;2023-05-07T09:46:41;4.97;;;4.47;;
37477;SDS011;23334;54.316;10.182;2023-05-07T09:49:07;4.53;;;4.23;;
37477;SDS011;23334;54.316;10.182;2023-05-07T09:51:45;5.93;;;3.70;;
37477;SDS011;23334;54.316;10.182;2023-05-07T09:54:14;4.90;;;4.20;;
37477;SDS011;23334;54.316;10.182;2023-05-07T09:56:40;3.93;;;3.30;;
37477;SDS011;23334;54.316;10.182;2023-05-07T09:59:07;6.60;;;3.73;;
37477;SDS011;23334;54.316;10.182;2023-05-07T10:01:35;3.90;;;3.60;;
37477;SDS011;23334;54.316;10.182;2023-05-07T10:04:02;3.87;;;3.57;;
37477;SDS011;23334;54.316;10.182;2023-05-07T10:06:29;4.07;;;3.77;;
37477;SDS011;23334;54.316;10.182;2023-05-07T10:08:55;5.40;;;3.40;;
37477;SDS011;23334;54.316;10.182;2023-05-07T10:11:21;3.77;;;3.30;;
37477;SDS011;23334;54.316;10.182;2023-05-07T10:13:48;4.30;;;3.60;;
37477;SDS011;23334;54.316;10.182;2023-05-07T10:16:13;3.70;;;3.50;;
37477;SDS011;23334;54.316;10.182;2023-05-07T10:18:40;3.53;;;3.33;;
37477;SDS011;23334;54.316;10.182;2023-05-07T10:21:19;3.83;;;3.53;;
37477;SDS011;23334;54.316;10.182;2023-05-07T10:23:49;4.30;;;3.37;;
37477;SDS011;23334;54.316;10.182;2023-05-07T10:26:16;4.30;;;3.90;;
37477;SDS011;23334;54.316;10.182;2023-05-07T10:28:45;3.30;;;3.00;;
37477;SDS011;23334;54.316;10.182;2023-05-07T10:34:10;3.53;;;3.03;;
37477;SDS011;23334;54.316;10.182;2023-05-07T10:36:38;7.23;;;3.73;;
37477;SDS011;23334;54.316;10.182;2023-05-07T10:39:04;3.33;;;3.03;;
37477;SDS011;23334;54.316;10.182;2023-05-07T10:41:32;3.60;;;3.30;;
37477;SDS011;23334;54.316;10.182;2023-05-07T10:43:57;8.63;;;4.07;;
37477;SDS011;23334;54.316;10.182;2023-05-07T10:46:26;3.13;;;2.93;;
37477;SDS011;23334;54.316;10.182;2023-05-07T10:49:13;2.87;;;2.67;;
37477;SDS011;23334;54.316;10.182;2023-05-07T10:51:37;3.00;;;2.73;;
37477;SDS011;23334;54.316;10.182;2023-05-07T10:56:35;3.47;;;3.20;;
37477;SDS011;23334;54.316;10.182;2023-05-07T11:02:01;3.10;;;2.87;;
37477;SDS011;23334;54.316;10.182;2023-05-07T11:04:29;3.93;;;2.90;;
37477;SDS011;23334;54.316;10.182;2023-05-07T11:15:14;2.93;;;2.47;;
37477;SDS011;23334;54.316;10.182;2023-05-07T11:17:58;2.83;;;2.63;;
37477;SDS011;23334;54.316;10.182;2023-05-07T11:26:05;2.60;;;2.40;;
37477;SDS011;23334;54.316;10.182;2023-05-07T11:28:36;3.07;;;2.90;;
37477;SDS011;23334;54.316;10.182;2023-05-07T11:31:03;2.80;;;2.67;;
37477;SDS011;23334;54.316;10.182;2023-05-07T11:33:29;3.07;;;2.13;;
37477;SDS011;23334;54.316;10.182;2023-05-07T11:35:56;3.93;;;2.20;;
37477;SDS011;23334;54.316;10.182;2023-05-07T11:38:22;3.33;;;2.90;;
37477;SDS011;23334;54.316;10.182;2023-05-07T11:40:52;4.30;;;2.63;;
37477;SDS011;23334;54.316;10.182;2023-05-07T11:43:18;2.40;;;2.20;;
37477;SDS011;23334;54.316;10.182;2023-05-07T11:45:45;2.93;;;2.07;;
37477;SDS011;23334;54.316;10.182;2023-05-07T11:48:12;2.70;;;2.50;;
37477;SDS011;23334;54.316;10.182;2023-05-07T11:50:49;1.83;;;1.70;;
37477;SDS011;23334;54.316;10.182;2023-05-07T11:53:24;2.03;;;1.93;;
37477;SDS011;23334;54.316;10.182;2023-05-07T11:55:56;4.47;;;2.23;;
37477;SDS011;23334;54.316;10.182;2023-05-07T11:58:23;4.03;;;2.10;;
37477;SDS011;23334;54.316;10.182;2023-05-07T12:00:50;2.20;;;1.67;;
37477;SDS011;23334;54.316;10.182;2023-05-07T12:03:16;2.00;;;1.90;;
37477;SDS011;23334;54.316;10.182;2023-05-07T12:05:43;2.07;;;1.97;;
37477;SDS011;23334;54.316;10.182;2023-05-07T12:08:13;2.10;;;2.00;;
37477;SDS011;23334;54.316;10.182;2023-05-07T12:10:46;3.23;;;1.80;;
37477;SDS011;23334;54.316;10.182;2023-05-07T12:13:14;1.87;;;1.67;;
37477;SDS011;23334;54.316;10.182;2023-05-07T12:15:43;1.97;;;1.87;;
37477;SDS011;23334;54.316;10.182;2023-05-07T12:18:10;2.00;;;1.90;;
37477;SDS011;23334;54.316;10.182;2023-05-07T12:20:36;2.50;;;1.67;;
37477;SDS011;23334;54.316;10.182;2023-05-07T12:23:02;1.80;;;1.70;;
37477;SDS011;23334;54.316;10.182;2023-05-07T12:25:31;2.13;;;1.63;;
37477;SDS011;23334;54.316;10.182;2023-05-07T12:28:00;1.73;;;1.63;;
37477;SDS011;23334;54.316;10.182;2023-05-07T12:30:26;1.83;;;1.73;;
37477;SDS011;23334;54.316;10.182;2023-05-07T12:32:52;2.10;;;1.90;;
37477;SDS011;23334;54.316;10.182;2023-05-07T12:35:26;2.30;;;2.20;;
37477;SDS011;23334;54.316;10.182;2023-05-07T12:37:55;6.60;;;2.43;;
37477;SDS011;23334;54.316;10.182;2023-05-07T12:40:21;2.00;;;1.90;;
37477;SDS011;23334;54.316;10.182;2023-05-07T12:42:47;1.67;;;1.53;;
37477;SDS011;23334;54.316;10.182;2023-05-07T12:45:19;1.60;;;1.50;;
37477;SDS011;23334;54.316;10.182;2023-05-07T12:47:47;3.87;;;1.87;;
37477;SDS011;23334;54.316;10.182;2023-05-07T12:50:13;5.13;;;1.70;;
37477;SDS011;23334;54.316;10.182;2023-05-07T12:52:40;2.00;;;1.90;;
37477;SDS011;23334;54.316;10.182;2023-05-07T12:55:06;1.87;;;1.77;;
37477;SDS011;23334;54.316;10.182;2023-05-07T12:57:41;1.73;;;1.63;;
37477;SDS011;23334;54.316;10.182;2023-05-07T13:00:07;2.40;;;1.93;;
37477;SDS011;23334;54.316;10.182;2023-05-07T13:02:34;3.10;;;1.53;;
37477;SDS011;23334;54.316;10.182;2023-05-07T13:05:02;3.90;;;1.90;;
37477;SDS011;23334;54.316;10.182;2023-05-07T13:07:28;3.00;;;1.87;;
37477;SDS011;23334;54.316;10.182;2023-05-07T13:09:54;2.10;;;1.90;;
37477;SDS011;23334;54.316;10.182;2023-05-07T13:12:20;2.00;;;1.80;;
37477;SDS011;23334;54.316;10.182;2023-05-07T13:14:46;1.40;;;1.30;;
37477;SDS011;23334;54.316;10.182;2023-05-07T13:17:12;2.03;;;1.57;;
37477;SDS011;23334;54.316;10.182;2023-05-07T13:19:38;2.63;;;1.80;;
37477;SDS011;23334;54.316;10.182;2023-05-07T13:22:04;2.23;;;2.13;;
37477;SDS011;23334;54.316;10.182;2023-05-07T13:24:30;2.60;;;1.70;;
37477;SDS011;23334;54.316;10.182;2023-05-07T13:26:55;2.10;;;1.90;;
37477;SDS011;23334;54.316;10.182;2023-05-07T13:29:22;1.93;;;1.80;;
37477;SDS011;23334;54.316;10.182;2023-05-07T13:31:54;1.83;;;1.73;;
37477;SDS011;23334;54.316;10.182;2023-05-07T13:34:20;2.30;;;1.77;;
37477;SDS011;23334;54.316;10.182;2023-05-07T13:36:46;1.80;;;1.70;;
37477;SDS011;23334;54.316;10.182;2023-05-07T13:39:12;2.00;;;1.43;;
37477;SDS011;23334;54.316;10.182;2023-05-07T13:41:37;4.60;;;2.10;;
37477;SDS011;23334;54.316;10.182;2023-05-07T13:44:03;2.30;;;2.00;;
37477;SDS011;23334;54.316;10.182;2023-05-07T13:46:29;2.20;;;1.70;;
37477;SDS011;23334;54.316;10.182;2023-05-07T13:48:54;1.40;;;1.30;;
37477;SDS011;23334;54.316;10.182;2023-05-07T13:51:20;2.50;;;1.60;;
37477;SDS011;23334;54.316;10.182;2023-05-07T13:53:46;2.40;;;1.63;;
37477;SDS011;23334;54.316;10.182;2023-05-07T13:56:12;8.50;;;1.90;;
37477;SDS011;23334;54.316;10.182;2023-05-07T13:58:37;4.00;;;1.83;;
37477;SDS011;23334;54.316;10.182;2023-05-07T14:01:03;3.10;;;1.83;;
37477;SDS011;23334;54.316;10.182;2023-05-07T14:03:29;1.43;;;1.33;;
37477;SDS011;23334;54.316;10.182;2023-05-07T14:05:56;1.90;;;1.80;;
37477;SDS011;23334;54.316;10.182;2023-05-07T14:08:24;1.93;;;1.60;;
37477;SDS011;23334;54.316;10.182;2023-05-07T14:10:50;3.37;;;1.63;;
37477;SDS011;23334;54.316;10.182;2023-05-07T14:13:16;1.53;;;1.43;;
37477;SDS011;23334;54.316;10.182;2023-05-07T14:15:42;2.40;;;1.53;;
37477;SDS011;23334;54.316;10.182;2023-05-07T14:18:11;1.90;;;1.80;;
37477;SDS011;23334;54.316;10.182;2023-05-07T14:20:37;2.43;;;2.10;;
37477;SDS011;23334;54.316;10.182;2023-05-07T14:23:03;3.63;;;1.70;;
37477;SDS011;23334;54.316;10.182;2023-05-07T14:25:28;2.40;;;1.40;;
37477;SDS011;23334;54.316;10.182;2023-05-07T14:27:54;3.13;;;2.93;;
37477;SDS011;23334;54.316;10.182;2023-05-07T14:30:20;1.80;;;1.70;;
37477;SDS011;23334;54.316;10.182;2023-05-07T14:32:49;2.60;;;2.20;;
37477;SDS011;23334;54.316;10.182;2023-05-07T14:35:14;2.80;;;1.87;;
37477;SDS011;23334;54.316;10.182;2023-05-07T14:37:40;1.77;;;1.67;;
37477;SDS011;23334;54.316;10.182;2023-05-07T14:40:06;1.60;;;1.50;;
37477;SDS011;23334;54.316;10.182;2023-05-07T14:42:32;2.70;;;1.50;;
37477;SDS011;23334;54.316;10.182;2023-05-07T14:44:57;2.70;;;1.40;;
37477;SDS011;23334;54.316;10.182;2023-05-07T14:47:23;2.23;;;2.03;;
37477;SDS011;23334;54.316;10.182;2023-05-07T14:49:49;3.00;;;2.00;;